createdAt,value
2023-01-11T00:00:06.709Z,83.56
2023-01-11T00:00:16.720Z,83.56
2023-01-11T00:00:26.701Z,83.63
2023-01-11T00:00:36.718Z,83.77
2023-01-11T00:00:46.792Z,83.63
2023-01-11T00:00:56.702Z,83.77
2023-01-11T00:01:07.423Z,83.98
2023-01-11T00:01:16.849Z,83.98
2023-01-11T00:01:26.692Z,83.98
2023-01-11T00:01:36.722Z,84.08
2023-01-11T00:01:46.702Z,84.08
2023-01-11T00:01:56.772Z,84.08
2023-01-11T00:02:06.758Z,84.19
2023-01-11T00:02:16.732Z,84.19
2023-01-11T00:02:26.866Z,84.29
2023-01-11T00:02:36.756Z,84.29
2023-01-11T00:02:46.738Z,84.43
2023-01-11T00:02:56.701Z,84.43
2023-01-11T00:03:06.744Z,84.39
2023-01-11T00:03:16.685Z,84.50
2023-01-11T00:03:26.703Z,84.50
2023-01-11T00:03:37.432Z,84.64
2023-01-11T00:03:47.435Z,84.64
2023-01-11T00:03:56.842Z,84.60
2023-01-11T00:04:06.681Z,84.70
2023-01-11T00:04:16.735Z,84.70
2023-01-11T00:04:26.695Z,84.81
2023-01-11T00:04:36.770Z,84.91
2023-01-11T00:04:46.749Z,84.84
2023-01-11T00:04:56.774Z,84.81
2023-01-11T00:05:06.747Z,84.84
2023-01-11T00:05:16.705Z,84.81
2023-01-11T00:05:26.681Z,84.81
2023-01-11T00:05:36.679Z,84.74
2023-01-11T00:05:46.688Z,84.74
2023-01-11T00:05:56.708Z,84.84
2023-01-11T00:06:06.673Z,84.81
2023-01-11T00:06:16.689Z,84.70
2023-01-11T00:06:26.770Z,84.60
2023-01-11T00:06:36.709Z,84.60
2023-01-11T00:06:46.791Z,84.60
2023-01-11T00:06:56.754Z,84.60
2023-01-11T00:07:06.673Z,84.53
2023-01-11T00:07:16.668Z,84.53
2023-01-11T00:07:26.668Z,84.43
2023-01-11T00:07:36.664Z,84.39
2023-01-11T00:07:47.521Z,84.39
2023-01-11T00:07:56.727Z,84.39
2023-01-11T00:08:06.706Z,84.43
2023-01-11T00:08:16.747Z,84.29
2023-01-11T00:08:26.709Z,84.39
2023-01-11T00:08:36.679Z,84.39
2023-01-11T00:08:46.683Z,84.39
2023-01-11T00:08:56.673Z,84.29
2023-01-11T00:09:06.678Z,84.39
2023-01-11T00:09:16.681Z,84.39
2023-01-11T00:09:26.673Z,84.50
2023-01-11T00:09:36.674Z,84.39
2023-01-11T00:09:46.682Z,84.43
2023-01-11T00:09:56.689Z,84.36
2023-01-11T00:10:06.679Z,84.39
2023-01-11T00:10:16.718Z,84.43
2023-01-11T00:10:26.660Z,84.39
2023-01-11T00:10:36.665Z,84.25
2023-01-11T00:10:46.686Z,84.29
2023-01-11T00:10:56.733Z,84.29
2023-01-11T00:11:06.671Z,84.29
2023-01-11T00:11:16.671Z,84.19
2023-01-11T00:11:26.650Z,84.29
2023-01-11T00:11:36.675Z,84.29
2023-01-11T00:11:46.659Z,84.29
2023-01-11T00:11:56.660Z,84.29
2023-01-11T00:12:06.664Z,84.39
2023-01-11T00:12:16.675Z,84.29
2023-01-11T00:12:26.656Z,84.39
2023-01-11T00:12:36.718Z,84.46
2023-01-11T00:12:46.644Z,84.39
2023-01-11T00:12:56.667Z,84.39
2023-01-11T00:13:06.676Z,84.39
2023-01-11T00:13:16.649Z,84.29
2023-01-11T00:13:26.653Z,84.39
2023-01-11T00:13:36.641Z,84.39
2023-01-11T00:13:46.649Z,84.39
2023-01-11T00:13:56.674Z,84.39
2023-01-11T00:14:06.694Z,84.39
2023-01-11T00:14:16.641Z,84.39
2023-01-11T00:14:26.651Z,84.25
2023-01-11T00:14:36.640Z,84.15
2023-01-11T00:14:46.640Z,84.29
2023-01-11T00:14:56.652Z,84.29
2023-01-11T00:15:06.690Z,84.19
2023-01-11T00:15:16.674Z,84.08
2023-01-11T00:15:26.680Z,84.05
2023-01-11T00:15:36.627Z,84.05
2023-01-11T00:15:46.707Z,83.98
2023-01-11T00:15:56.680Z,83.98
2023-01-11T00:16:06.707Z,83.98
2023-01-11T00:16:16.726Z,83.98
2023-01-11T00:16:26.723Z,83.87
2023-01-11T00:16:36.635Z,83.98
2023-01-11T00:16:46.652Z,83.84
2023-01-11T00:16:56.665Z,83.84
2023-01-11T00:17:06.630Z,83.98
2023-01-11T00:17:16.634Z,83.84
2023-01-11T00:17:26.642Z,83.84
2023-01-11T00:17:36.631Z,83.94
2023-01-11T00:17:46.654Z,83.84
2023-01-11T00:17:56.627Z,83.98
2023-01-11T00:18:06.633Z,83.94
2023-01-11T00:18:16.640Z,83.94
2023-01-11T00:18:27.439Z,83.84
2023-01-11T00:18:36.637Z,83.87
2023-01-11T00:18:46.662Z,83.87
2023-01-11T00:18:56.677Z,83.73
2023-01-11T00:19:06.660Z,83.84
2023-01-11T00:19:16.670Z,83.94
2023-01-11T00:19:26.692Z,83.84
2023-01-11T00:19:36.623Z,83.87
2023-01-11T00:19:46.621Z,83.84
2023-01-11T00:19:56.616Z,83.98
2023-01-11T00:20:06.638Z,83.94
2023-01-11T00:20:16.650Z,83.98
2023-01-11T00:20:26.621Z,84.08
2023-01-11T00:20:36.843Z,84.08
2023-01-11T00:20:46.608Z,84.05
2023-01-11T00:20:56.616Z,84.05
2023-01-11T00:21:06.656Z,84.05
2023-01-11T00:21:16.612Z,84.05
2023-01-11T00:21:26.631Z,84.08
2023-01-11T00:21:36.627Z,84.08
2023-01-11T00:21:46.629Z,84.08
2023-01-11T00:21:57.454Z,84.15
2023-01-11T00:22:06.605Z,84.15
2023-01-11T00:22:16.686Z,84.19
2023-01-11T00:22:26.716Z,84.19
2023-01-11T00:22:36.746Z,84.25
2023-01-11T00:22:46.612Z,84.19
2023-01-11T00:22:56.640Z,84.29
2023-01-11T00:23:06.601Z,84.25
2023-01-11T00:23:16.625Z,84.19
2023-01-11T00:23:26.706Z,84.19
2023-01-11T00:23:36.611Z,84.15
2023-01-11T00:23:46.611Z,84.19
2023-01-11T00:23:56.630Z,83.98
2023-01-11T00:24:06.622Z,83.94
2023-01-11T00:24:16.596Z,83.94
2023-01-11T00:24:26.608Z,83.77
2023-01-11T00:24:36.590Z,83.77
2023-01-11T00:24:46.645Z,83.77
2023-01-11T00:24:56.645Z,83.63
2023-01-11T00:25:06.591Z,83.63
2023-01-11T00:25:16.605Z,83.53
2023-01-11T00:25:26.598Z,83.48
2023-01-11T00:25:36.602Z,83.53
2023-01-11T00:25:46.641Z,83.42
2023-01-11T00:25:56.679Z,83.42
2023-01-11T00:26:06.588Z,83.28
2023-01-11T00:26:16.635Z,83.32
2023-01-11T00:26:26.583Z,83.22
2023-01-11T00:26:36.620Z,83.22
2023-01-11T00:26:46.623Z,83.22
2023-01-11T00:26:56.591Z,83.22
2023-01-11T00:27:06.583Z,83.22
2023-01-11T00:27:16.619Z,83.07
2023-01-11T00:27:27.600Z,83.07
2023-01-11T00:27:36.597Z,83.11
2023-01-11T00:27:46.596Z,83.11
2023-01-11T00:27:57.435Z,83.11
2023-01-11T00:28:06.617Z,83.11
2023-01-11T00:28:16.700Z,83.07
2023-01-11T00:28:26.580Z,83.22
2023-01-11T00:28:36.580Z,83.22
2023-01-11T00:28:46.575Z,83.22
2023-01-11T00:28:56.588Z,83.17
2023-01-11T00:29:06.649Z,83.32
2023-01-11T00:29:16.572Z,83.28
2023-01-11T00:29:26.574Z,83.32
2023-01-11T00:29:36.617Z,83.42
2023-01-11T00:29:46.571Z,83.53
2023-01-11T00:29:56.594Z,83.53
2023-01-11T00:30:06.606Z,83.63
2023-01-11T00:30:16.596Z,83.53
2023-01-11T00:30:26.599Z,83.53
2023-01-11T00:30:36.601Z,83.53
2023-01-11T00:30:46.575Z,83.56
2023-01-11T00:30:56.646Z,83.63
2023-01-11T00:31:06.583Z,83.63
2023-01-11T00:31:16.578Z,83.63
2023-01-11T00:31:26.663Z,83.63
2023-01-11T00:31:36.662Z,83.63
2023-01-11T00:31:46.575Z,83.63
2023-01-11T00:31:56.575Z,83.48
2023-01-11T00:32:06.593Z,83.63
2023-01-11T00:32:16.570Z,83.53
2023-01-11T00:32:26.615Z,83.53
2023-01-11T00:32:36.561Z,83.63
2023-01-11T00:32:46.561Z,83.63
2023-01-11T00:32:56.597Z,83.48
2023-01-11T00:33:06.559Z,83.53
2023-01-11T00:33:16.605Z,83.53
2023-01-11T00:33:26.568Z,83.48
2023-01-11T00:33:36.612Z,83.42
2023-01-11T00:33:46.575Z,83.42
2023-01-11T00:33:56.591Z,83.53
2023-01-11T00:34:06.564Z,83.42
2023-01-11T00:34:16.580Z,83.53
2023-01-11T00:34:26.600Z,83.42
2023-01-11T00:34:36.582Z,83.53
2023-01-11T00:34:46.567Z,83.48
2023-01-11T00:34:56.557Z,83.38
2023-01-11T00:35:06.558Z,83.38
2023-01-11T00:35:16.595Z,83.38
2023-01-11T00:35:26.550Z,83.38
2023-01-11T00:35:36.551Z,83.38
2023-01-11T00:35:46.561Z,83.38
2023-01-11T00:35:56.545Z,83.28
2023-01-11T00:36:06.660Z,83.42
2023-01-11T00:36:16.575Z,83.32
2023-01-11T00:36:26.546Z,83.32
2023-01-11T00:36:36.541Z,83.28
2023-01-11T00:36:46.577Z,83.28
2023-01-11T00:36:56.551Z,83.32
2023-01-11T00:37:06.549Z,83.28
2023-01-11T00:37:16.552Z,83.32
2023-01-11T00:37:26.637Z,83.28
2023-01-11T00:37:36.567Z,83.38
2023-01-11T00:37:46.537Z,83.42
2023-01-11T00:37:56.538Z,83.42
2023-01-11T00:38:06.557Z,83.32
2023-01-11T00:38:16.535Z,83.42
2023-01-11T00:38:26.563Z,83.38
2023-01-11T00:38:36.558Z,83.28
2023-01-11T00:38:46.718Z,83.32
2023-01-11T00:38:56.559Z,83.28
2023-01-11T00:39:06.550Z,83.32
2023-01-11T00:39:16.537Z,83.28
2023-01-11T00:39:26.547Z,83.22
2023-01-11T00:39:36.558Z,83.32
2023-01-11T00:39:46.543Z,83.32
2023-01-11T00:39:57.446Z,83.22
2023-01-11T00:40:06.570Z,83.17
2023-01-11T00:40:16.567Z,83.22
2023-01-11T00:40:26.574Z,83.07
2023-01-11T00:40:36.533Z,83.07
2023-01-11T00:40:46.522Z,83.07
2023-01-11T00:40:56.538Z,83.07
2023-01-11T00:41:06.601Z,82.97
2023-01-11T00:41:16.567Z,83.11
2023-01-11T00:41:26.540Z,82.97
2023-01-11T00:41:36.537Z,83.01
2023-01-11T00:41:46.519Z,82.97
2023-01-11T00:41:56.543Z,82.82
2023-01-11T00:42:06.620Z,82.90
2023-01-11T00:42:16.525Z,82.76
2023-01-11T00:42:26.548Z,82.86
2023-01-11T00:42:36.512Z,82.90
2023-01-11T00:42:46.525Z,82.76
2023-01-11T00:42:56.562Z,82.76
2023-01-11T00:43:06.534Z,82.76
2023-01-11T00:43:16.520Z,82.72
2023-01-11T00:43:26.513Z,82.65
2023-01-11T00:43:37.556Z,82.65
2023-01-11T00:43:46.519Z,82.65
2023-01-11T00:43:56.568Z,82.55
2023-01-11T00:44:06.514Z,82.55
2023-01-11T00:44:16.524Z,82.65
2023-01-11T00:44:26.559Z,82.62
2023-01-11T00:44:36.730Z,82.59
2023-01-11T00:44:46.527Z,82.55
2023-01-11T00:44:56.578Z,82.45
2023-01-11T00:45:06.504Z,82.34
2023-01-11T00:45:16.571Z,82.24
2023-01-11T00:45:26.524Z,82.34
2023-01-11T00:45:36.519Z,82.34
2023-01-11T00:45:47.507Z,82.34
2023-01-11T00:45:56.518Z,82.34
2023-01-11T00:46:06.574Z,82.31
2023-01-11T00:46:16.529Z,82.34
2023-01-11T00:46:26.616Z,82.45
2023-01-11T00:46:37.430Z,82.34
2023-01-11T00:46:46.500Z,82.34
2023-01-11T00:46:56.508Z,82.24
2023-01-11T00:47:06.507Z,82.24
2023-01-11T00:47:16.498Z,82.20
2023-01-11T00:47:26.527Z,82.24
2023-01-11T00:47:36.526Z,82.24
2023-01-11T00:47:46.572Z,82.24
2023-01-11T00:47:56.512Z,82.24
2023-01-11T00:48:06.523Z,82.24
2023-01-11T00:48:16.564Z,82.34
2023-01-11T00:48:26.505Z,82.24
2023-01-11T00:48:37.441Z,82.24
2023-01-11T00:48:46.487Z,82.14
2023-01-11T00:48:56.495Z,82.14
2023-01-11T00:49:07.448Z,82.03
2023-01-11T00:49:16.493Z,81.99
2023-01-11T00:49:26.495Z,81.93
2023-01-11T00:49:36.519Z,81.93
2023-01-11T00:49:46.496Z,81.89
2023-01-11T00:49:56.496Z,81.93
2023-01-11T00:50:06.485Z,81.89
2023-01-11T00:50:16.496Z,81.89
2023-01-11T00:50:26.539Z,81.89
2023-01-11T00:50:36.486Z,81.79
2023-01-11T00:50:46.485Z,81.82
2023-01-11T00:50:56.531Z,81.82
2023-01-11T00:51:06.475Z,81.82
2023-01-11T00:51:16.483Z,81.79
2023-01-11T00:51:26.568Z,81.79
2023-01-11T00:51:36.537Z,81.93
2023-01-11T00:51:46.481Z,81.82
2023-01-11T00:51:56.505Z,81.82
2023-01-11T00:52:06.495Z,81.82
2023-01-11T00:52:16.488Z,81.82
2023-01-11T00:52:26.472Z,81.72
2023-01-11T00:52:36.498Z,81.68
2023-01-11T00:52:46.493Z,81.72
2023-01-11T00:52:56.474Z,81.62
2023-01-11T00:53:06.472Z,81.58
2023-01-11T00:53:16.495Z,81.58
2023-01-11T00:53:26.537Z,81.51
2023-01-11T00:53:36.499Z,81.51
2023-01-11T00:53:46.490Z,81.48
2023-01-11T00:53:56.561Z,81.51
2023-01-11T00:54:06.462Z,81.48
2023-01-11T00:54:16.525Z,81.41
2023-01-11T00:54:26.476Z,81.37
2023-01-11T00:54:36.469Z,81.41
2023-01-11T00:54:46.487Z,81.41
2023-01-11T00:54:56.568Z,81.37
2023-01-11T00:55:06.484Z,81.41
2023-01-11T00:55:16.458Z,81.30
2023-01-11T00:55:26.459Z,81.27
2023-01-11T00:55:36.527Z,81.27
2023-01-11T00:55:46.498Z,81.27
2023-01-11T00:55:56.468Z,81.27
2023-01-11T00:56:06.469Z,81.16
2023-01-11T00:56:16.501Z,81.10
2023-01-11T00:56:26.454Z,81.06
2023-01-11T00:56:36.538Z,81.06
2023-01-11T00:56:46.568Z,81.13
2023-01-11T00:56:56.479Z,81.06
2023-01-11T00:57:06.536Z,81.16
2023-01-11T00:57:16.451Z,81.13
2023-01-11T00:57:26.488Z,81.16
2023-01-11T00:57:36.483Z,81.13
2023-01-11T00:57:46.454Z,81.16
2023-01-11T00:57:57.435Z,81.16
2023-01-11T00:58:06.474Z,81.30
2023-01-11T00:58:16.454Z,81.16
2023-01-11T00:58:26.519Z,81.06
2023-01-11T00:58:36.443Z,81.06
2023-01-11T00:58:46.448Z,80.96
2023-01-11T00:58:56.570Z,80.96
2023-01-11T00:59:06.448Z,80.96
2023-01-11T00:59:16.450Z,81.06
2023-01-11T00:59:26.462Z,80.85
2023-01-11T00:59:36.439Z,80.96
2023-01-11T00:59:47.512Z,80.96
2023-01-11T00:59:56.459Z,80.96
2023-01-11T01:00:06.464Z,80.85
2023-01-11T01:00:16.458Z,80.96
2023-01-11T01:00:26.468Z,80.96
2023-01-11T01:00:36.438Z,81.10
2023-01-11T01:00:46.453Z,80.92
2023-01-11T01:00:56.454Z,80.96
2023-01-11T01:01:06.504Z,80.85
2023-01-11T01:01:16.477Z,80.96
2023-01-11T01:01:26.502Z,80.96
2023-01-11T01:01:36.547Z,80.96
2023-01-11T01:01:46.467Z,80.96
2023-01-11T01:01:56.501Z,80.85
2023-01-11T01:02:06.447Z,80.85
2023-01-11T01:02:16.590Z,80.85
2023-01-11T01:02:26.544Z,80.96
2023-01-11T01:02:36.501Z,80.75
2023-01-11T01:02:46.528Z,80.85
2023-01-11T01:02:56.483Z,80.85
2023-01-11T01:03:06.441Z,80.85
2023-01-11T01:03:16.444Z,80.75
2023-01-11T01:03:26.437Z,80.85
2023-01-11T01:03:36.444Z,80.75
2023-01-11T01:03:46.451Z,80.75
2023-01-11T01:03:56.439Z,80.71
2023-01-11T01:04:06.449Z,80.85
2023-01-11T01:04:16.450Z,80.71
2023-01-11T01:04:26.429Z,80.85
2023-01-11T01:04:42.937Z,80.75
2023-01-11T01:04:46.487Z,80.85
2023-01-11T01:04:56.438Z,80.85
2023-01-11T01:05:06.440Z,80.85
2023-01-11T01:05:16.474Z,80.85
2023-01-11T01:05:26.428Z,80.85
2023-01-11T01:05:36.441Z,80.85
2023-01-11T01:05:46.470Z,80.75
2023-01-11T01:05:56.514Z,80.85
2023-01-11T01:06:06.447Z,80.85
2023-01-11T01:06:16.416Z,80.99
2023-01-11T01:06:26.437Z,80.96
2023-01-11T01:06:36.466Z,80.96
2023-01-11T01:06:46.451Z,81.06
2023-01-11T01:06:56.509Z,81.06
2023-01-11T01:07:07.015Z,81.10
2023-01-11T01:07:16.430Z,80.96
2023-01-11T01:07:26.418Z,81.06
2023-01-11T01:07:36.453Z,81.06
2023-01-11T01:07:46.406Z,81.16
2023-01-11T01:07:56.411Z,81.06
2023-01-11T01:08:06.567Z,81.27
2023-01-11T01:08:16.410Z,81.16
2023-01-11T01:08:26.461Z,81.16
2023-01-11T01:08:36.407Z,81.27
2023-01-11T01:08:46.956Z,81.20
2023-01-11T01:08:56.424Z,81.27
2023-01-11T01:09:06.423Z,81.27
2023-01-11T01:09:16.406Z,81.20
2023-01-11T01:09:26.446Z,81.20
2023-01-11T01:09:36.412Z,81.30
2023-01-11T01:09:46.416Z,81.16
2023-01-11T01:09:56.947Z,81.20
2023-01-11T01:10:06.403Z,81.30
2023-01-11T01:10:16.402Z,81.30
2023-01-11T01:10:26.423Z,81.27
2023-01-11T01:10:36.523Z,81.27
2023-01-11T01:10:46.444Z,81.16
2023-01-11T01:10:56.476Z,81.16
2023-01-11T01:11:06.391Z,81.16
2023-01-11T01:11:16.523Z,81.30
2023-01-11T01:11:26.421Z,81.30
2023-01-11T01:11:36.388Z,81.16
2023-01-11T01:11:46.407Z,81.30
2023-01-11T01:11:56.389Z,81.37
2023-01-11T01:12:06.393Z,81.37
2023-01-11T01:12:16.534Z,81.27
2023-01-11T01:12:26.395Z,81.30
2023-01-11T01:12:36.390Z,81.16
2023-01-11T01:12:46.396Z,81.20
2023-01-11T01:12:56.398Z,81.16
2023-01-11T01:13:06.409Z,81.30
2023-01-11T01:13:16.409Z,81.20
2023-01-11T01:13:26.384Z,81.30
2023-01-11T01:13:36.478Z,81.27
2023-01-11T01:13:46.453Z,81.30
2023-01-11T01:13:56.966Z,81.30
2023-01-11T01:14:06.396Z,81.30
2023-01-11T01:14:16.377Z,81.30
2023-01-11T01:14:26.523Z,81.27
2023-01-11T01:14:36.441Z,81.27
2023-01-11T01:14:46.374Z,81.41
2023-01-11T01:14:56.410Z,81.27
2023-01-11T01:15:06.400Z,81.35
2023-01-11T01:15:16.387Z,81.30
2023-01-11T01:15:26.384Z,81.27
2023-01-11T01:15:36.447Z,81.30
2023-01-11T01:15:46.390Z,81.41
2023-01-11T01:15:56.389Z,81.41
2023-01-11T01:16:06.383Z,81.37
2023-01-11T01:16:16.452Z,81.37
2023-01-11T01:16:26.406Z,81.30
2023-01-11T01:16:36.386Z,81.30
2023-01-11T01:16:46.368Z,81.41
2023-01-11T01:16:56.375Z,81.27
2023-01-11T01:17:06.404Z,81.27
2023-01-11T01:17:16.466Z,81.27
2023-01-11T01:17:26.432Z,81.20
2023-01-11T01:17:36.363Z,81.27
2023-01-11T01:17:46.391Z,81.27
2023-01-11T01:17:56.506Z,81.27
2023-01-11T01:18:06.363Z,81.16
2023-01-11T01:18:16.362Z,81.20
2023-01-11T01:18:26.388Z,81.20
2023-01-11T01:18:36.360Z,81.16
2023-01-11T01:18:46.359Z,81.20
2023-01-11T01:18:56.399Z,81.06
2023-01-11T01:19:06.367Z,81.06
2023-01-11T01:19:16.985Z,81.10
2023-01-11T01:19:26.415Z,81.06
2023-01-11T01:19:36.361Z,81.10
2023-01-11T01:19:46.372Z,81.10
2023-01-11T01:19:56.352Z,81.06
2023-01-11T01:20:06.353Z,81.10
2023-01-11T01:20:16.371Z,81.20
2023-01-11T01:20:26.388Z,81.10
2023-01-11T01:20:36.392Z,81.16
2023-01-11T01:20:46.924Z,81.16
2023-01-11T01:20:56.346Z,81.20
2023-01-11T01:21:06.365Z,81.10
2023-01-11T01:21:16.376Z,81.10
2023-01-11T01:21:26.354Z,81.16
2023-01-11T01:21:36.349Z,81.27
2023-01-11T01:21:46.387Z,81.16
2023-01-11T01:21:56.353Z,81.20
2023-01-11T01:22:06.380Z,81.20
2023-01-11T01:22:16.375Z,81.20
2023-01-11T01:22:26.350Z,81.16
2023-01-11T01:22:36.478Z,81.20
2023-01-11T01:22:46.383Z,81.16
2023-01-11T01:22:56.359Z,81.06
2023-01-11T01:23:06.350Z,81.06
2023-01-11T01:23:16.353Z,81.20
2023-01-11T01:23:26.337Z,81.06
2023-01-11T01:23:36.998Z,80.99
2023-01-11T01:23:46.346Z,81.10
2023-01-11T01:23:56.338Z,80.96
2023-01-11T01:24:06.364Z,80.89
2023-01-11T01:24:16.337Z,80.85
2023-01-11T01:24:26.355Z,80.89
2023-01-11T01:24:36.366Z,80.99
2023-01-11T01:24:46.331Z,80.96
2023-01-11T01:24:56.369Z,80.99
2023-01-11T01:25:06.343Z,80.99
2023-01-11T01:25:16.375Z,80.96
2023-01-11T01:25:26.352Z,81.06
2023-01-11T01:25:36.358Z,80.96
2023-01-11T01:25:46.339Z,80.96
2023-01-11T01:25:56.334Z,80.89
2023-01-11T01:26:06.356Z,80.96
2023-01-11T01:26:16.352Z,80.96
2023-01-11T01:26:26.352Z,80.85
2023-01-11T01:26:36.349Z,80.89
2023-01-11T01:26:46.320Z,80.99
2023-01-11T01:26:56.349Z,80.96
2023-01-11T01:27:06.396Z,80.89
2023-01-11T01:27:16.342Z,80.99
2023-01-11T01:27:26.342Z,80.89
2023-01-11T01:27:36.323Z,80.99
2023-01-11T01:27:46.429Z,80.99
2023-01-11T01:27:56.344Z,80.89
2023-01-11T01:28:06.318Z,80.79
2023-01-11T01:28:16.340Z,80.75
2023-01-11T01:28:26.336Z,80.65
2023-01-11T01:28:36.314Z,80.65
2023-01-11T01:28:46.323Z,80.68
2023-01-11T01:28:56.334Z,80.58
2023-01-11T01:29:06.327Z,80.65
2023-01-11T01:29:16.351Z,80.75
2023-01-11T01:29:26.313Z,80.75
2023-01-11T01:29:36.941Z,80.75
2023-01-11T01:29:46.314Z,80.89
2023-01-11T01:29:56.311Z,80.85
2023-01-11T01:30:06.310Z,80.89
2023-01-11T01:30:16.351Z,80.89
2023-01-11T01:30:26.318Z,80.89
2023-01-11T01:30:36.332Z,80.89
2023-01-11T01:30:46.322Z,80.79
2023-01-11T01:30:56.374Z,80.65
2023-01-11T01:31:06.455Z,80.75
2023-01-11T01:31:16.383Z,80.75
2023-01-11T01:31:26.331Z,80.75
2023-01-11T01:31:36.392Z,80.75
2023-01-11T01:31:46.321Z,80.65
2023-01-11T01:31:56.383Z,80.65
2023-01-11T01:32:06.332Z,80.65
2023-01-11T01:32:16.369Z,80.65
2023-01-11T01:32:26.307Z,80.65
2023-01-11T01:32:36.312Z,80.54
2023-01-11T01:32:46.292Z,80.54
2023-01-11T01:32:56.397Z,80.44
2023-01-11T01:33:06.309Z,80.44
2023-01-11T01:33:16.413Z,80.40
2023-01-11T01:33:26.400Z,80.37
2023-01-11T01:33:36.324Z,80.33
2023-01-11T01:33:46.296Z,80.33
2023-01-11T01:33:56.311Z,80.33
2023-01-11T01:34:06.298Z,80.23
2023-01-11T01:34:16.294Z,80.23
2023-01-11T01:34:26.300Z,80.23
2023-01-11T01:34:36.312Z,80.23
2023-01-11T01:34:46.289Z,80.23
2023-01-11T01:34:56.312Z,80.27
2023-01-11T01:35:06.288Z,80.37
2023-01-11T01:35:16.333Z,80.33
2023-01-11T01:35:26.316Z,80.30
2023-01-11T01:35:36.281Z,80.33
2023-01-11T01:35:46.285Z,80.33
2023-01-11T01:35:56.942Z,80.37
2023-01-11T01:36:06.356Z,80.37
2023-01-11T01:36:16.323Z,80.47
2023-01-11T01:36:26.317Z,80.33
2023-01-11T01:36:36.292Z,80.44
2023-01-11T01:36:46.288Z,80.44
2023-01-11T01:36:56.301Z,80.33
2023-01-11T01:37:06.287Z,80.33
2023-01-11T01:37:16.290Z,80.37
2023-01-11T01:37:26.316Z,80.37
2023-01-11T01:37:36.285Z,80.33
2023-01-11T01:37:46.313Z,80.33
2023-01-11T01:37:56.305Z,80.44
2023-01-11T01:38:06.482Z,80.33
2023-01-11T01:38:16.307Z,80.44
2023-01-11T01:38:26.312Z,80.44
2023-01-11T01:38:36.288Z,80.44
2023-01-11T01:38:46.306Z,80.44
2023-01-11T01:38:56.343Z,80.44
2023-01-11T01:39:06.271Z,80.44
2023-01-11T01:39:16.295Z,80.44
2023-01-11T01:39:26.278Z,80.44
2023-01-11T01:39:36.270Z,80.47
2023-01-11T01:39:46.290Z,80.37
2023-01-11T01:39:56.281Z,80.44
2023-01-11T01:40:06.283Z,80.40
2023-01-11T01:40:16.308Z,80.44
2023-01-11T01:40:26.280Z,80.23
2023-01-11T01:40:36.271Z,80.19
2023-01-11T01:40:46.289Z,80.16
2023-01-11T01:40:56.260Z,80.13
2023-01-11T01:41:06.269Z,80.13
2023-01-11T01:41:16.260Z,80.13
2023-01-11T01:41:26.265Z,80.23
2023-01-11T01:41:36.286Z,80.13
2023-01-11T01:41:46.277Z,80.23
2023-01-11T01:41:56.263Z,80.23
2023-01-11T01:42:06.266Z,80.13
2023-01-11T01:42:16.960Z,80.23
2023-01-11T01:42:26.263Z,80.23
2023-01-11T01:42:36.269Z,80.09
2023-01-11T01:42:46.266Z,80.13
2023-01-11T01:42:56.257Z,80.23
2023-01-11T01:43:06.324Z,80.13
2023-01-11T01:43:16.423Z,80.13
2023-01-11T01:43:26.254Z,80.16
2023-01-11T01:43:36.378Z,80.13
2023-01-11T01:43:47.682Z,80.13
2023-01-11T01:43:56.259Z,80.13
2023-01-11T01:44:06.382Z,80.02
2023-01-11T01:44:16.255Z,80.02
2023-01-11T01:44:26.259Z,79.99
2023-01-11T01:44:36.240Z,80.02
2023-01-11T01:44:46.298Z,80.02
2023-01-11T01:44:56.268Z,79.92
2023-01-11T01:45:06.243Z,79.92
2023-01-11T01:45:16.260Z,79.99
2023-01-11T01:45:26.991Z,80.02
2023-01-11T01:45:36.248Z,80.02
2023-01-11T01:45:46.243Z,79.92
2023-01-11T01:45:56.348Z,79.92
2023-01-11T01:46:06.300Z,79.78
2023-01-11T01:46:16.327Z,79.82
2023-01-11T01:46:26.315Z,79.82
2023-01-11T01:46:36.260Z,79.82
2023-01-11T01:46:46.261Z,79.82
2023-01-11T01:46:56.249Z,79.82
2023-01-11T01:47:06.236Z,79.92
2023-01-11T01:47:16.283Z,79.92
2023-01-11T01:47:26.941Z,79.92
2023-01-11T01:47:36.241Z,79.92
2023-01-11T01:47:46.971Z,79.82
2023-01-11T01:47:56.237Z,79.82
2023-01-11T01:48:06.244Z,79.71
2023-01-11T01:48:16.267Z,79.71
2023-01-11T01:48:26.335Z,79.71
2023-01-11T01:48:36.233Z,79.61
2023-01-11T01:48:46.235Z,79.71
2023-01-11T01:48:56.232Z,79.71
2023-01-11T01:49:06.231Z,79.71
2023-01-11T01:49:16.296Z,79.78
2023-01-11T01:49:26.228Z,79.71
2023-01-11T01:49:36.246Z,79.61
2023-01-11T01:49:46.255Z,79.61
2023-01-11T01:49:56.221Z,79.58
2023-01-11T01:50:06.968Z,79.61
2023-01-11T01:50:16.221Z,79.71
2023-01-11T01:50:26.218Z,79.71
2023-01-11T01:50:36.245Z,79.71
2023-01-11T01:50:46.217Z,79.71
2023-01-11T01:50:56.221Z,79.68
2023-01-11T01:51:06.232Z,79.71
2023-01-11T01:51:16.213Z,79.71
2023-01-11T01:51:26.228Z,79.71
2023-01-11T01:51:36.247Z,79.61
2023-01-11T01:51:46.221Z,79.58
2023-01-11T01:51:56.239Z,79.58
2023-01-11T01:52:06.231Z,79.58
2023-01-11T01:52:16.207Z,79.82
2023-01-11T01:52:26.227Z,79.71
2023-01-11T01:52:36.223Z,79.68
2023-01-11T01:52:46.938Z,79.61
2023-01-11T01:52:56.229Z,79.61
2023-01-11T01:53:06.207Z,79.58
2023-01-11T01:53:16.215Z,79.51
2023-01-11T01:53:26.229Z,79.61
2023-01-11T01:53:36.280Z,79.61
2023-01-11T01:53:46.223Z,79.61
2023-01-11T01:53:56.251Z,79.61
2023-01-11T01:54:06.210Z,79.51
2023-01-11T01:54:16.244Z,79.41
2023-01-11T01:54:26.215Z,79.30
2023-01-11T01:54:36.198Z,79.16
2023-01-11T01:54:46.208Z,79.16
2023-01-11T01:54:56.224Z,79.20
2023-01-11T01:55:06.198Z,79.20
2023-01-11T01:55:16.203Z,79.10
2023-01-11T01:55:26.220Z,78.96
2023-01-11T01:55:36.211Z,78.99
2023-01-11T01:55:46.208Z,78.85
2023-01-11T01:55:56.209Z,78.89
2023-01-11T01:56:06.201Z,78.89
2023-01-11T01:56:16.222Z,78.99
2023-01-11T01:56:26.237Z,78.89
2023-01-11T01:56:36.205Z,78.75
2023-01-11T01:56:46.214Z,78.64
2023-01-11T01:56:56.214Z,78.54
2023-01-11T01:57:06.272Z,78.58
2023-01-11T01:57:16.204Z,78.54
2023-01-11T01:57:26.203Z,78.54
2023-01-11T01:57:36.205Z,78.64
2023-01-11T01:57:46.248Z,78.68
2023-01-11T01:57:56.205Z,78.64
2023-01-11T01:58:06.200Z,78.64
2023-01-11T01:58:16.222Z,78.54
2023-01-11T01:58:26.202Z,78.54
2023-01-11T01:58:36.205Z,78.44
2023-01-11T01:58:46.231Z,78.44
2023-01-11T01:58:56.181Z,78.54
2023-01-11T01:59:06.200Z,78.54
2023-01-11T01:59:16.235Z,78.58
2023-01-11T01:59:33.071Z,78.68
2023-01-11T01:59:36.307Z,78.54
2023-01-11T01:59:46.190Z,78.64
2023-01-11T01:59:56.185Z,78.64
2023-01-11T02:00:06.208Z,78.75
2023-01-11T02:00:16.175Z,78.75
2023-01-11T02:00:26.989Z,78.68
2023-01-11T02:00:36.225Z,78.64
2023-01-11T02:00:46.200Z,78.78
2023-01-11T02:00:56.217Z,78.75
2023-01-11T02:01:06.209Z,78.85
2023-01-11T02:01:16.350Z,78.85
2023-01-11T02:01:26.974Z,78.85
2023-01-11T02:01:36.227Z,78.81
2023-01-11T02:01:46.249Z,78.85
2023-01-11T02:01:56.219Z,78.75
2023-01-11T02:02:06.187Z,78.78
2023-01-11T02:02:16.261Z,78.78
2023-01-11T02:02:26.254Z,78.68
2023-01-11T02:02:36.268Z,78.54
2023-01-11T02:02:46.241Z,78.54
2023-01-11T02:02:56.296Z,78.54
2023-01-11T02:03:06.243Z,78.58
2023-01-11T02:03:16.174Z,78.68
2023-01-11T02:03:26.193Z,78.54
2023-01-11T02:03:36.162Z,78.64
2023-01-11T02:03:46.161Z,78.78
2023-01-11T02:03:56.295Z,78.64
2023-01-11T02:04:06.159Z,78.50
2023-01-11T02:04:16.162Z,78.54
2023-01-11T02:04:26.196Z,78.54
2023-01-11T02:04:36.194Z,78.58
2023-01-11T02:04:46.180Z,78.54
2023-01-11T02:04:56.171Z,78.64
2023-01-11T02:05:06.155Z,78.61
2023-01-11T02:05:16.961Z,78.75
2023-01-11T02:05:26.215Z,78.64
2023-01-11T02:05:36.157Z,78.64
2023-01-11T02:05:46.174Z,78.75
2023-01-11T02:05:56.154Z,78.68
2023-01-11T02:06:06.150Z,78.64
2023-01-11T02:06:16.183Z,78.64
2023-01-11T02:06:26.256Z,78.64
2023-01-11T02:06:36.236Z,78.54
2023-01-11T02:06:47.072Z,78.54
2023-01-11T02:06:56.187Z,78.54
2023-01-11T02:07:07.088Z,78.58
2023-01-11T02:07:16.298Z,78.58
2023-01-11T02:07:26.148Z,78.68
2023-01-11T02:07:36.150Z,78.75
2023-01-11T02:07:46.321Z,78.64
2023-01-11T02:07:56.168Z,78.54
2023-01-11T02:08:06.179Z,78.64
2023-01-11T02:08:16.205Z,78.64
2023-01-11T02:08:26.157Z,78.54
2023-01-11T02:08:36.156Z,78.68
2023-01-11T02:08:46.145Z,78.64